sensor_id;sensor_type;location;lat;lon;timestamp;P1;durP1;ratioP1;P2;durP2;ratioP2
50872;SDS011;72604;40.088;18.346;2023-12-28T00:01:27;171.07;;;58.63;;
50872;SDS011;72604;40.088;18.346;2023-12-28T00:05:08;180.02;;;62.72;;
50872;SDS011;72604;40.088;18.346;2023-12-28T00:08:50;117.88;;;51.83;;
50872;SDS011;72604;40.088;18.346;2023-12-28T00:12:31;118.65;;;49.10;;
50872;SDS011;72604;40.088;18.346;2023-12-28T00:16:14;225.85;;;70.30;;
50872;SDS011;72604;40.088;18.346;2023-12-28T00:19:55;125.13;;;51.05;;
50872;SDS011;72604;40.088;18.346;2023-12-28T00:23:36;164.27;;;62.20;;
50872;SDS011;72604;40.088;18.346;2023-12-28T00:27:17;253.75;;;82.63;;
50872;SDS011;72604;40.088;18.346;2023-12-28T00:30:58;290.92;;;92.60;;
50872;SDS011;72604;40.088;18.346;2023-12-28T00:34:41;327.77;;;102.50;;
50872;SDS011;72604;40.088;18.346;2023-12-28T00:38:22;259.20;;;88.68;;
50872;SDS011;72604;40.088;18.346;2023-12-28T00:42:03;203.98;;;75.00;;
50872;SDS011;72604;40.088;18.346;2023-12-28T00:45:45;212.20;;;78.82;;
50872;SDS011;72604;40.088;18.346;2023-12-28T00:49:26;309.50;;;95.38;;
50872;SDS011;72604;40.088;18.346;2023-12-28T00:53:08;208.23;;;75.85;;
50872;SDS011;72604;40.088;18.346;2023-12-28T00:56:49;168.88;;;69.40;;
50872;SDS011;72604;40.088;18.346;2023-12-28T01:00:30;192.23;;;67.30;;
50872;SDS011;72604;40.088;18.346;2023-12-28T01:04:11;290.45;;;83.03;;
50872;SDS011;72604;40.088;18.346;2023-12-28T01:07:53;216.27;;;67.63;;
50872;SDS011;72604;40.088;18.346;2023-12-28T01:11:35;158.40;;;62.80;;
50872;SDS011;72604;40.088;18.346;2023-12-28T01:15:17;202.10;;;65.65;;
50872;SDS011;72604;40.088;18.346;2023-12-28T01:19:00;264.02;;;70.93;;
50872;SDS011;72604;40.088;18.346;2023-12-28T01:22:41;410.65;;;98.78;;
50872;SDS011;72604;40.088;18.346;2023-12-28T01:26:22;305.80;;;71.15;;
50872;SDS011;72604;40.088;18.346;2023-12-28T01:30:05;328.17;;;77.47;;
50872;SDS011;72604;40.088;18.346;2023-12-28T01:33:46;287.85;;;70.57;;
50872;SDS011;72604;40.088;18.346;2023-12-28T01:37:27;303.80;;;72.15;;
50872;SDS011;72604;40.088;18.346;2023-12-28T01:41:11;216.88;;;66.68;;
50872;SDS011;72604;40.088;18.346;2023-12-28T01:44:53;263.38;;;60.83;;
50872;SDS011;72604;40.088;18.346;2023-12-28T01:48:35;157.35;;;42.30;;
50872;SDS011;72604;40.088;18.346;2023-12-28T01:52:17;211.63;;;46.83;;
50872;SDS011;72604;40.088;18.346;2023-12-28T01:55:58;209.35;;;50.20;;
50872;SDS011;72604;40.088;18.346;2023-12-28T01:59:40;286.55;;;59.65;;
50872;SDS011;72604;40.088;18.346;2023-12-28T02:03:21;274.17;;;50.33;;
50872;SDS011;72604;40.088;18.346;2023-12-28T02:07:04;158.70;;;38.97;;
50872;SDS011;72604;40.088;18.346;2023-12-28T02:10:46;120.47;;;32.38;;
50872;SDS011;72604;40.088;18.346;2023-12-28T02:14:27;208.93;;;45.42;;
50872;SDS011;72604;40.088;18.346;2023-12-28T02:18:09;227.70;;;46.83;;
50872;SDS011;72604;40.088;18.346;2023-12-28T02:21:52;247.30;;;45.83;;
50872;SDS011;72604;40.088;18.346;2023-12-28T02:25:38;192.23;;;43.08;;
50872;SDS011;72604;40.088;18.346;2023-12-28T02:29:18;195.35;;;42.78;;
50872;SDS011;72604;40.088;18.346;2023-12-28T02:33:02;198.93;;;46.85;;
50872;SDS011;72604;40.088;18.346;2023-12-28T02:36:45;148.82;;;37.13;;
50872;SDS011;72604;40.088;18.346;2023-12-28T02:40:27;202.27;;;45.50;;
50872;SDS011;72604;40.088;18.346;2023-12-28T02:44:10;175.98;;;43.38;;
50872;SDS011;72604;40.088;18.346;2023-12-28T02:47:52;164.38;;;40.78;;
50872;SDS011;72604;40.088;18.346;2023-12-28T02:51:33;135.52;;;36.53;;
50872;SDS011;72604;40.088;18.346;2023-12-28T02:55:16;172.82;;;43.55;;
50872;SDS011;72604;40.088;18.346;2023-12-28T02:58:57;225.07;;;49.58;;
50872;SDS011;72604;40.088;18.346;2023-12-28T03:02:40;194.38;;;43.25;;
50872;SDS011;72604;40.088;18.346;2023-12-28T03:06:21;121.90;;;34.10;;
50872;SDS011;72604;40.088;18.346;2023-12-28T03:10:03;134.70;;;37.05;;
50872;SDS011;72604;40.088;18.346;2023-12-28T03:13:44;165.60;;;40.25;;
50872;SDS011;72604;40.088;18.346;2023-12-28T03:17:25;169.30;;;38.75;;
50872;SDS011;72604;40.088;18.346;2023-12-28T03:21:08;174.07;;;42.33;;
50872;SDS011;72604;40.088;18.346;2023-12-28T03:24:49;112.95;;;32.08;;
50872;SDS011;72604;40.088;18.346;2023-12-28T03:28:30;179.98;;;40.33;;
50872;SDS011;72604;40.088;18.346;2023-12-28T03:32:11;105.53;;;30.55;;
50872;SDS011;72604;40.088;18.346;2023-12-28T03:35:52;121.65;;;28.80;;
50872;SDS011;72604;40.088;18.346;2023-12-28T03:39:35;143.73;;;35.70;;
50872;SDS011;72604;40.088;18.346;2023-12-28T03:43:16;217.10;;;43.17;;
50872;SDS011;72604;40.088;18.346;2023-12-28T03:46:57;148.82;;;33.50;;
50872;SDS011;72604;40.088;18.346;2023-12-28T03:50:37;100.57;;;27.08;;
50872;SDS011;72604;40.088;18.346;2023-12-28T03:54:18;97.55;;;27.23;;
50872;SDS011;72604;40.088;18.346;2023-12-28T03:58:01;144.27;;;34.25;;
50872;SDS011;72604;40.088;18.346;2023-12-28T04:01:42;112.75;;;28.52;;
50872;SDS011;72604;40.088;18.346;2023-12-28T04:05:23;211.75;;;43.67;;
50872;SDS011;72604;40.088;18.346;2023-12-28T04:09:04;81.68;;;21.85;;
50872;SDS011;72604;40.088;18.346;2023-12-28T04:12:45;136.15;;;35.22;;
50872;SDS011;72604;40.088;18.346;2023-12-28T04:16:27;105.65;;;23.05;;
50872;SDS011;72604;40.088;18.346;2023-12-28T04:20:09;116.68;;;31.85;;
50872;SDS011;72604;40.088;18.346;2023-12-28T04:23:50;169.50;;;38.72;;
50872;SDS011;72604;40.088;18.346;2023-12-28T04:27:32;142.93;;;32.35;;
50872;SDS011;72604;40.088;18.346;2023-12-28T04:31:13;123.18;;;29.15;;
50872;SDS011;72604;40.088;18.346;2023-12-28T04:34:57;147.68;;;33.40;;
50872;SDS011;72604;40.088;18.346;2023-12-28T04:38:38;156.07;;;36.75;;
50872;SDS011;72604;40.088;18.346;2023-12-28T04:42:20;147.30;;;29.52;;
50872;SDS011;72604;40.088;18.346;2023-12-28T04:46:02;185.90;;;36.15;;
50872;SDS011;72604;40.088;18.346;2023-12-28T04:49:43;154.15;;;33.15;;
50872;SDS011;72604;40.088;18.346;2023-12-28T04:53:25;178.18;;;36.17;;
50872;SDS011;72604;40.088;18.346;2023-12-28T04:57:06;147.75;;;29.60;;
50872;SDS011;72604;40.088;18.346;2023-12-28T05:00:48;164.98;;;37.92;;
50872;SDS011;72604;40.088;18.346;2023-12-28T05:04:31;117.18;;;24.67;;
50872;SDS011;72604;40.088;18.346;2023-12-28T05:08:12;177.40;;;36.28;;
50872;SDS011;72604;40.088;18.346;2023-12-28T05:11:54;124.53;;;28.98;;
50872;SDS011;72604;40.088;18.346;2023-12-28T05:15:35;145.65;;;28.55;;
50872;SDS011;72604;40.088;18.346;2023-12-28T05:19:16;136.10;;;28.92;;
50872;SDS011;72604;40.088;18.346;2023-12-28T05:22:57;170.52;;;32.00;;
50872;SDS011;72604;40.088;18.346;2023-12-28T05:26:38;193.07;;;30.13;;
50872;SDS011;72604;40.088;18.346;2023-12-28T05:30:20;170.35;;;26.25;;
50872;SDS011;72604;40.088;18.346;2023-12-28T05:34:01;237.35;;;33.13;;
50872;SDS011;72604;40.088;18.346;2023-12-28T05:37:42;198.98;;;28.17;;
50872;SDS011;72604;40.088;18.346;2023-12-28T05:41:23;195.45;;;26.75;;
50872;SDS011;72604;40.088;18.346;2023-12-28T05:45:05;166.63;;;24.30;;
50872;SDS011;72604;40.088;18.346;2023-12-28T05:48:47;213.68;;;28.00;;
50872;SDS011;72604;40.088;18.346;2023-12-28T05:52:28;223.50;;;30.30;;
50872;SDS011;72604;40.088;18.346;2023-12-28T05:56:09;163.88;;;23.35;;
50872;SDS011;72604;40.088;18.346;2023-12-28T05:59:50;241.90;;;26.63;;
50872;SDS011;72604;40.088;18.346;2023-12-28T06:03:31;165.88;;;22.40;;
50872;SDS011;72604;40.088;18.346;2023-12-28T06:07:13;190.20;;;26.05;;
50872;SDS011;72604;40.088;18.346;2023-12-28T06:10:54;218.43;;;29.98;;
50872;SDS011;72604;40.088;18.346;2023-12-28T06:14:35;181.05;;;28.70;;
50872;SDS011;72604;40.088;18.346;2023-12-28T06:18:16;149.98;;;25.00;;
50872;SDS011;72604;40.088;18.346;2023-12-28T06:21:58;166.80;;;25.55;;
50872;SDS011;72604;40.088;18.346;2023-12-28T06:25:40;145.05;;;28.20;;
50872;SDS011;72604;40.088;18.346;2023-12-28T06:29:21;176.60;;;28.77;;
50872;SDS011;72604;40.088;18.346;2023-12-28T06:33:02;115.93;;;23.23;;
50872;SDS011;72604;40.088;18.346;2023-12-28T06:36:44;132.48;;;25.75;;
50872;SDS011;72604;40.088;18.346;2023-12-28T06:40:25;127.18;;;24.55;;
50872;SDS011;72604;40.088;18.346;2023-12-28T06:44:07;77.40;;;15.18;;
50872;SDS011;72604;40.088;18.346;2023-12-28T06:47:48;136.55;;;24.90;;
50872;SDS011;72604;40.088;18.346;2023-12-28T06:51:29;103.03;;;18.77;;
50872;SDS011;72604;40.088;18.346;2023-12-28T06:55:11;148.32;;;22.92;;
50872;SDS011;72604;40.088;18.346;2023-12-28T06:58:52;151.80;;;25.25;;
50872;SDS011;72604;40.088;18.346;2023-12-28T07:02:34;143.05;;;21.20;;
50872;SDS011;72604;40.088;18.346;2023-12-28T07:06:15;195.07;;;26.77;;
50872;SDS011;72604;40.088;18.346;2023-12-28T07:09:57;177.65;;;25.25;;
50872;SDS011;72604;40.088;18.346;2023-12-28T07:13:38;160.27;;;24.42;;
50872;SDS011;72604;40.088;18.346;2023-12-28T07:17:19;119.97;;;22.73;;
50872;SDS011;72604;40.088;18.346;2023-12-28T07:21:01;126.93;;;20.20;;
50872;SDS011;72604;40.088;18.346;2023-12-28T07:24:42;119.28;;;21.45;;
50872;SDS011;72604;40.088;18.346;2023-12-28T07:28:23;118.43;;;23.60;;
50872;SDS011;72604;40.088;18.346;2023-12-28T07:32:04;99.72;;;23.85;;
50872;SDS011;72604;40.088;18.346;2023-12-28T07:35:48;121.25;;;20.27;;
50872;SDS011;72604;40.088;18.346;2023-12-28T07:39:30;104.60;;;22.58;;
50872;SDS011;72604;40.088;18.346;2023-12-28T07:43:11;107.60;;;20.23;;
50872;SDS011;72604;40.088;18.346;2023-12-28T07:46:52;102.88;;;21.83;;
50872;SDS011;72604;40.088;18.346;2023-12-28T07:50:32;76.38;;;16.45;;
50872;SDS011;72604;40.088;18.346;2023-12-28T07:54:13;90.25;;;15.85;;
50872;SDS011;72604;40.088;18.346;2023-12-28T07:57:56;92.20;;;18.70;;
50872;SDS011;72604;40.088;18.346;2023-12-28T08:01:37;91.45;;;18.67;;
50872;SDS011;72604;40.088;18.346;2023-12-28T08:05:18;59.90;;;12.38;;
50872;SDS011;72604;40.088;18.346;2023-12-28T08:08:59;120.68;;;20.70;;
50872;SDS011;72604;40.088;18.346;2023-12-28T08:12:41;129.25;;;23.15;;
50872;SDS011;72604;40.088;18.346;2023-12-28T08:16:24;92.75;;;16.80;;
50872;SDS011;72604;40.088;18.346;2023-12-28T08:20:06;72.38;;;13.90;;
50872;SDS011;72604;40.088;18.346;2023-12-28T08:23:47;84.13;;;14.40;;
50872;SDS011;72604;40.088;18.346;2023-12-28T08:27:28;111.72;;;18.65;;
50872;SDS011;72604;40.088;18.346;2023-12-28T08:31:09;148.73;;;19.42;;
50872;SDS011;72604;40.088;18.346;2023-12-28T08:34:52;80.15;;;14.35;;
50872;SDS011;72604;40.088;18.346;2023-12-28T08:38:33;60.20;;;13.88;;
50872;SDS011;72604;40.088;18.346;2023-12-28T08:42:14;58.03;;;13.50;;
50872;SDS011;72604;40.088;18.346;2023-12-28T08:45:55;69.30;;;15.52;;
50872;SDS011;72604;40.088;18.346;2023-12-28T08:49:36;140.13;;;22.52;;
50872;SDS011;72604;40.088;18.346;2023-12-28T08:53:19;62.40;;;14.98;;
50872;SDS011;72604;40.088;18.346;2023-12-28T08:56:59;56.67;;;15.60;;
50872;SDS011;72604;40.088;18.346;2023-12-28T09:00:40;84.55;;;16.95;;
50872;SDS011;72604;40.088;18.346;2023-12-28T09:04:25;76.35;;;17.35;;
50872;SDS011;72604;40.088;18.346;2023-12-28T09:08:06;113.35;;;23.40;;
50872;SDS011;72604;40.088;18.346;2023-12-28T09:11:49;73.70;;;18.77;;
50872;SDS011;72604;40.088;18.346;2023-12-28T09:15:30;54.97;;;17.45;;
50872;SDS011;72604;40.088;18.346;2023-12-28T09:19:11;88.68;;;21.38;;
50872;SDS011;72604;40.088;18.346;2023-12-28T09:22:53;81.18;;;22.00;;
50872;SDS011;72604;40.088;18.346;2023-12-28T09:26:35;42.35;;;17.77;;
50872;SDS011;72604;40.088;18.346;2023-12-28T09:30:18;31.17;;;16.45;;
50872;SDS011;72604;40.088;18.346;2023-12-28T09:33:59;32.67;;;18.80;;
50872;SDS011;72604;40.088;18.346;2023-12-28T09:37:40;49.97;;;25.10;;
50872;SDS011;72604;40.088;18.346;2023-12-28T09:41:22;28.80;;;17.48;;
50872;SDS011;72604;40.088;18.346;2023-12-28T09:45:05;26.38;;;18.00;;
50872;SDS011;72604;40.088;18.346;2023-12-28T09:48:47;24.10;;;17.63;;
50872;SDS011;72604;40.088;18.346;2023-12-28T09:52:29;24.95;;;17.70;;
50872;SDS011;72604;40.088;18.346;2023-12-28T09:56:09;27.63;;;20.50;;
50872;SDS011;72604;40.088;18.346;2023-12-28T09:59:51;27.55;;;18.55;;
50872;SDS011;72604;40.088;18.346;2023-12-28T10:03:32;26.60;;;17.60;;
50872;SDS011;72604;40.088;18.346;2023-12-28T10:07:14;27.67;;;18.15;;
50872;SDS011;72604;40.088;18.346;2023-12-28T10:10:55;20.17;;;16.00;;
50872;SDS011;72604;40.088;18.346;2023-12-28T10:14:38;22.13;;;15.88;;
50872;SDS011;72604;40.088;18.346;2023-12-28T10:18:19;21.45;;;14.75;;
50872;SDS011;72604;40.088;18.346;2023-12-28T10:22:01;17.92;;;14.07;;
50872;SDS011;72604;40.088;18.346;2023-12-28T10:25:44;16.98;;;13.52;;
50872;SDS011;72604;40.088;18.346;2023-12-28T10:29:25;17.75;;;12.63;;
50872;SDS011;72604;40.088;18.346;2023-12-28T10:33:07;19.58;;;12.55;;
50872;SDS011;72604;40.088;18.346;2023-12-28T10:36:48;18.95;;;12.60;;
50872;SDS011;72604;40.088;18.346;2023-12-28T10:40:30;17.77;;;12.35;;
50872;SDS011;72604;40.088;18.346;2023-12-28T10:44:13;15.85;;;11.30;;
50872;SDS011;72604;40.088;18.346;2023-12-28T10:48:00;14.48;;;9.43;;
50872;SDS011;72604;40.088;18.346;2023-12-28T10:51:44;8.75;;;6.65;;
50872;SDS011;72604;40.088;18.346;2023-12-28T10:55:26;9.52;;;6.47;;
50872;SDS011;72604;40.088;18.346;2023-12-28T10:59:14;8.75;;;5.57;;
50872;SDS011;72604;40.088;18.346;2023-12-28T11:02:58;8.68;;;4.70;;
50872;SDS011;72604;40.088;18.346;2023-12-28T11:06:43;7.72;;;5.38;;
50872;SDS011;72604;40.088;18.346;2023-12-28T11:10:25;10.60;;;6.68;;
50872;SDS011;72604;40.088;18.346;2023-12-28T11:14:07;11.15;;;6.32;;
50872;SDS011;72604;40.088;18.346;2023-12-28T11:17:51;9.55;;;6.35;;
50872;SDS011;72604;40.088;18.346;2023-12-28T11:21:32;13.15;;;6.38;;
50872;SDS011;72604;40.088;18.346;2023-12-28T11:25:14;9.23;;;5.70;;
50872;SDS011;72604;40.088;18.346;2023-12-28T11:29:00;9.48;;;5.78;;
50872;SDS011;72604;40.088;18.346;2023-12-28T11:32:41;7.90;;;5.03;;
50872;SDS011;72604;40.088;18.346;2023-12-28T11:36:25;10.45;;;6.35;;
50872;SDS011;72604;40.088;18.346;2023-12-28T11:40:12;16.70;;;9.80;;
50872;SDS011;72604;40.088;18.346;2023-12-28T11:43:55;16.13;;;11.02;;
50872;SDS011;72604;40.088;18.346;2023-12-28T11:47:37;12.23;;;5.97;;
50872;SDS011;72604;40.088;18.346;2023-12-28T11:51:18;14.02;;;9.07;;
50872;SDS011;72604;40.088;18.346;2023-12-28T11:55:02;10.05;;;5.55;;
50872;SDS011;72604;40.088;18.346;2023-12-28T11:58:44;9.60;;;6.13;;
50872;SDS011;72604;40.088;18.346;2023-12-28T12:02:27;10.10;;;6.93;;
50872;SDS011;72604;40.088;18.346;2023-12-28T12:06:08;10.48;;;7.95;;
50872;SDS011;72604;40.088;18.346;2023-12-28T12:09:49;14.10;;;9.30;;
50872;SDS011;72604;40.088;18.346;2023-12-28T12:13:31;14.20;;;10.20;;
50872;SDS011;72604;40.088;18.346;2023-12-28T12:17:13;11.70;;;7.30;;
50872;SDS011;72604;40.088;18.346;2023-12-28T12:20:54;35.78;;;29.40;;
50872;SDS011;72604;40.088;18.346;2023-12-28T12:24:35;26.92;;;22.98;;
50872;SDS011;72604;40.088;18.346;2023-12-28T12:28:16;14.52;;;11.80;;
50872;SDS011;72604;40.088;18.346;2023-12-28T12:31:59;9.48;;;7.30;;
50872;SDS011;72604;40.088;18.346;2023-12-28T12:35:42;12.30;;;7.82;;
50872;SDS011;72604;40.088;18.346;2023-12-28T12:39:23;11.90;;;7.57;;
50872;SDS011;72604;40.088;18.346;2023-12-28T12:43:05;10.07;;;7.47;;
50872;SDS011;72604;40.088;18.346;2023-12-28T12:46:48;12.23;;;8.77;;
50872;SDS011;72604;40.088;18.346;2023-12-28T12:50:30;60.33;;;53.58;;
50872;SDS011;72604;40.088;18.346;2023-12-28T12:54:12;15.35;;;11.13;;
50872;SDS011;72604;40.088;18.346;2023-12-28T12:57:53;11.60;;;7.15;;
50872;SDS011;72604;40.088;18.346;2023-12-28T13:01:35;17.70;;;12.68;;
50872;SDS011;72604;40.088;18.346;2023-12-28T13:05:17;12.20;;;6.35;;
50872;SDS011;72604;40.088;18.346;2023-12-28T13:09:00;13.15;;;8.65;;
50872;SDS011;72604;40.088;18.346;2023-12-28T13:12:40;12.55;;;9.38;;
50872;SDS011;72604;40.088;18.346;2023-12-28T13:16:21;13.57;;;9.38;;
50872;SDS011;72604;40.088;18.346;2023-12-28T13:20:03;12.80;;;9.90;;
50872;SDS011;72604;40.088;18.346;2023-12-28T13:23:45;22.17;;;17.88;;
50872;SDS011;72604;40.088;18.346;2023-12-28T13:27:27;61.70;;;49.25;;
50872;SDS011;72604;40.088;18.346;2023-12-28T13:31:08;30.75;;;22.52;;
50872;SDS011;72604;40.088;18.346;2023-12-28T13:34:50;55.72;;;42.30;;
50872;SDS011;72604;40.088;18.346;2023-12-28T13:38:31;8.25;;;6.40;;
50872;SDS011;72604;40.088;18.346;2023-12-28T13:42:13;14.82;;;12.13;;
50872;SDS011;72604;40.088;18.346;2023-12-28T13:45:55;17.13;;;13.00;;
50872;SDS011;72604;40.088;18.346;2023-12-28T13:49:35;13.48;;;9.77;;
50872;SDS011;72604;40.088;18.346;2023-12-28T13:53:16;12.13;;;8.85;;
50872;SDS011;72604;40.088;18.346;2023-12-28T13:56:57;13.52;;;10.15;;
50872;SDS011;72604;40.088;18.346;2023-12-28T14:00:40;19.70;;;15.77;;
50872;SDS011;72604;40.088;18.346;2023-12-28T14:04:22;17.17;;;13.50;;
50872;SDS011;72604;40.088;18.346;2023-12-28T14:08:03;17.05;;;12.73;;
50872;SDS011;72604;40.088;18.346;2023-12-28T14:11:44;24.40;;;22.17;;
50872;SDS011;72604;40.088;18.346;2023-12-28T14:15:25;31.02;;;27.50;;
50872;SDS011;72604;40.088;18.346;2023-12-28T14:19:06;23.38;;;20.70;;
50872;SDS011;72604;40.088;18.346;2023-12-28T14:22:49;19.08;;;16.35;;
50872;SDS011;72604;40.088;18.346;2023-12-28T14:26:30;17.00;;;12.38;;
50872;SDS011;72604;40.088;18.346;2023-12-28T14:30:15;23.60;;;16.85;;
50872;SDS011;72604;40.088;18.346;2023-12-28T14:33:57;18.95;;;13.77;;
50872;SDS011;72604;40.088;18.346;2023-12-28T14:37:38;21.45;;;15.30;;
50872;SDS011;72604;40.088;18.346;2023-12-28T14:41:20;22.92;;;13.55;;
50872;SDS011;72604;40.088;18.346;2023-12-28T14:45:01;19.30;;;14.63;;
50872;SDS011;72604;40.088;18.346;2023-12-28T14:48:43;39.40;;;24.70;;
50872;SDS011;72604;40.088;18.346;2023-12-28T14:52:25;144.63;;;91.63;;
50872;SDS011;72604;40.088;18.346;2023-12-28T14:56:06;65.25;;;48.95;;
50872;SDS011;72604;40.088;18.346;2023-12-28T14:59:48;25.30;;;14.27;;
50872;SDS011;72604;40.088;18.346;2023-12-28T15:03:29;43.17;;;29.90;;
50872;SDS011;72604;40.088;18.346;2023-12-28T15:07:10;51.08;;;39.03;;
50872;SDS011;72604;40.088;18.346;2023-12-28T15:10:51;59.22;;;44.67;;
50872;SDS011;72604;40.088;18.346;2023-12-28T15:14:32;51.13;;;36.40;;
50872;SDS011;72604;40.088;18.346;2023-12-28T15:18:16;57.08;;;43.40;;
50872;SDS011;72604;40.088;18.346;2023-12-28T15:21:58;62.10;;;37.78;;
50872;SDS011;72604;40.088;18.346;2023-12-28T15:25:39;69.90;;;43.08;;
50872;SDS011;72604;40.088;18.346;2023-12-28T15:29:19;79.32;;;49.30;;
50872;SDS011;72604;40.088;18.346;2023-12-28T15:33:00;64.35;;;42.28;;
50872;SDS011;72604;40.088;18.346;2023-12-28T15:36:43;38.63;;;27.38;;
50872;SDS011;72604;40.088;18.346;2023-12-28T15:40:24;32.90;;;25.23;;
50872;SDS011;72604;40.088;18.346;2023-12-28T15:44:05;58.08;;;45.70;;
50872;SDS011;72604;40.088;18.346;2023-12-28T15:47:46;52.22;;;38.35;;
50872;SDS011;72604;40.088;18.346;2023-12-28T15:51:28;45.90;;;34.85;;
50872;SDS011;72604;40.088;18.346;2023-12-28T15:55:10;44.08;;;33.38;;
50872;SDS011;72604;40.088;18.346;2023-12-28T15:58:51;40.95;;;29.35;;
50872;SDS011;72604;40.088;18.346;2023-12-28T16:02:32;32.65;;;23.73;;
50872;SDS011;72604;40.088;18.346;2023-12-28T16:06:13;28.88;;;22.33;;
50872;SDS011;72604;40.088;18.346;2023-12-28T16:09:54;29.75;;;24.92;;
50872;SDS011;72604;40.088;18.346;2023-12-28T16:13:37;38.13;;;30.10;;
50872;SDS011;72604;40.088;18.346;2023-12-28T16:17:19;39.90;;;30.73;;
50872;SDS011;72604;40.088;18.346;2023-12-28T16:21:01;42.78;;;35.15;;
50872;SDS011;72604;40.088;18.346;2023-12-28T16:24:41;49.95;;;42.80;;
50872;SDS011;72604;40.088;18.346;2023-12-28T16:28:23;50.08;;;39.53;;
50872;SDS011;72604;40.088;18.346;2023-12-28T16:32:05;38.22;;;31.85;;
50872;SDS011;72604;40.088;18.346;2023-12-28T16:35:46;70.30;;;52.95;;
50872;SDS011;72604;40.088;18.346;2023-12-28T16:39:27;75.53;;;57.72;;
50872;SDS011;72604;40.088;18.346;2023-12-28T16:43:08;53.05;;;47.28;;
50872;SDS011;72604;40.088;18.346;2023-12-28T16:46:50;36.42;;;31.00;;
50872;SDS011;72604;40.088;18.346;2023-12-28T16:50:32;37.00;;;32.42;;
50872;SDS011;72604;40.088;18.346;2023-12-28T16:54:13;43.75;;;35.10;;
50872;SDS011;72604;40.088;18.346;2023-12-28T16:57:56;42.88;;;37.50;;
50872;SDS011;72604;40.088;18.346;2023-12-28T17:01:37;40.42;;;32.55;;
50872;SDS011;72604;40.088;18.346;2023-12-28T17:05:18;38.42;;;29.80;;
50872;SDS011;72604;40.088;18.346;2023-12-28T17:09:02;41.50;;;35.85;;
50872;SDS011;72604;40.088;18.346;2023-12-28T17:12:47;48.97;;;40.33;;
50872;SDS011;72604;40.088;18.346;2023-12-28T17:16:29;53.13;;;42.45;;
50872;SDS011;72604;40.088;18.346;2023-12-28T17:20:12;73.65;;;54.25;;
50872;SDS011;72604;40.088;18.346;2023-12-28T17:23:53;63.08;;;49.42;;
50872;SDS011;72604;40.088;18.346;2023-12-28T17:27:38;47.97;;;35.95;;
50872;SDS011;72604;40.088;18.346;2023-12-28T17:31:21;52.72;;;39.33;;
50872;SDS011;72604;40.088;18.346;2023-12-28T17:35:04;49.17;;;36.92;;
50872;SDS011;72604;40.088;18.346;2023-12-28T17:38:46;42.10;;;32.25;;
50872;SDS011;72604;40.088;18.346;2023-12-28T17:42:29;43.95;;;33.50;;
50872;SDS011;72604;40.088;18.346;2023-12-28T17:46:14;39.35;;;30.45;;
50872;SDS011;72604;40.088;18.346;2023-12-28T17:49:56;43.20;;;28.63;;
50872;SDS011;72604;40.088;18.346;2023-12-28T17:53:37;64.03;;;48.63;;
50872;SDS011;72604;40.088;18.346;2023-12-28T17:57:19;54.95;;;43.20;;
50872;SDS011;72604;40.088;18.346;2023-12-28T18:01:00;55.97;;;46.40;;
50872;SDS011;72604;40.088;18.346;2023-12-28T18:04:43;47.85;;;40.38;;
50872;SDS011;72604;40.088;18.346;2023-12-28T18:08:24;40.38;;;33.08;;
50872;SDS011;72604;40.088;18.346;2023-12-28T18:12:05;47.70;;;37.17;;
50872;SDS011;72604;40.088;18.346;2023-12-28T18:15:47;55.60;;;43.10;;
50872;SDS011;72604;40.088;18.346;2023-12-28T18:19:28;50.92;;;39.50;;
50872;SDS011;72604;40.088;18.346;2023-12-28T18:23:10;53.72;;;40.10;;
50872;SDS011;72604;40.088;18.346;2023-12-28T18:26:51;51.13;;;37.65;;
50872;SDS011;72604;40.088;18.346;2023-12-28T18:30:32;64.35;;;42.08;;
50872;SDS011;72604;40.088;18.346;2023-12-28T18:34:15;55.78;;;40.58;;
50872;SDS011;72604;40.088;18.346;2023-12-28T18:37:56;60.05;;;40.83;;
50872;SDS011;72604;40.088;18.346;2023-12-28T18:41:39;64.00;;;45.15;;
50872;SDS011;72604;40.088;18.346;2023-12-28T18:45:20;79.15;;;53.20;;
50872;SDS011;72604;40.088;18.346;2023-12-28T18:49:03;79.70;;;54.60;;
50872;SDS011;72604;40.088;18.346;2023-12-28T18:52:44;74.18;;;52.08;;
50872;SDS011;72604;40.088;18.346;2023-12-28T18:56:25;67.47;;;50.33;;
50872;SDS011;72604;40.088;18.346;2023-12-28T19:00:08;108.10;;;84.43;;
50872;SDS011;72604;40.088;18.346;2023-12-28T19:03:49;125.60;;;109.15;;
50872;SDS011;72604;40.088;18.346;2023-12-28T19:07:31;120.88;;;99.75;;
50872;SDS011;72604;40.088;18.346;2023-12-28T19:11:12;81.22;;;64.35;;
50872;SDS011;72604;40.088;18.346;2023-12-28T19:14:53;76.72;;;58.08;;
50872;SDS011;72604;40.088;18.346;2023-12-28T19:18:36;96.80;;;75.60;;
50872;SDS011;72604;40.088;18.346;2023-12-28T19:22:18;111.47;;;81.35;;
50872;SDS011;72604;40.088;18.346;2023-12-28T19:25:59;91.97;;;68.13;;
50872;SDS011;72604;40.088;18.346;2023-12-28T19:29:39;69.88;;;52.28;;
50872;SDS011;72604;40.088;18.346;2023-12-28T19:33:21;81.25;;;58.85;;
50872;SDS011;72604;40.088;18.346;2023-12-28T19:37:05;69.97;;;55.45;;
50872;SDS011;72604;40.088;18.346;2023-12-28T19:40:46;74.85;;;58.35;;
50872;SDS011;72604;40.088;18.346;2023-12-28T19:44:28;70.97;;;54.88;;
50872;SDS011;72604;40.088;18.346;2023-12-28T19:48:08;108.03;;;81.78;;
50872;SDS011;72604;40.088;18.346;2023-12-28T19:51:49;81.13;;;61.08;;
50872;SDS011;72604;40.088;18.346;2023-12-28T19:55:32;96.78;;;62.03;;
50872;SDS011;72604;40.088;18.346;2023-12-28T19:59:14;84.53;;;60.35;;
50872;SDS011;72604;40.088;18.346;2023-12-28T20:02:54;72.60;;;53.17;;
50872;SDS011;72604;40.088;18.346;2023-12-28T20:06:38;96.43;;;67.63;;
50872;SDS011;72604;40.088;18.346;2023-12-28T20:10:22;117.70;;;79.40;;
50872;SDS011;72604;40.088;18.346;2023-12-28T20:14:04;97.03;;;61.22;;
50872;SDS011;72604;40.088;18.346;2023-12-28T20:17:45;217.82;;;137.05;;
50872;SDS011;72604;40.088;18.346;2023-12-28T20:21:26;318.85;;;206.75;;
50872;SDS011;72604;40.088;18.346;2023-12-28T20:25:08;637.30;;;343.52;;
50872;SDS011;72604;40.088;18.346;2023-12-28T20:28:49;654.40;;;290.65;;
50872;SDS011;72604;40.088;18.346;2023-12-28T20:32:32;209.05;;;128.75;;
50872;SDS011;72604;40.088;18.346;2023-12-28T20:36:12;227.23;;;93.80;;
50872;SDS011;72604;40.088;18.346;2023-12-28T20:39:53;216.90;;;63.22;;
50872;SDS011;72604;40.088;18.346;2023-12-28T20:43:34;185.25;;;61.13;;
50872;SDS011;72604;40.088;18.346;2023-12-28T20:47:15;161.75;;;68.10;;
50872;SDS011;72604;40.088;18.346;2023-12-28T20:50:58;219.05;;;93.47;;
50872;SDS011;72604;40.088;18.346;2023-12-28T20:54:40;125.93;;;79.32;;
50872;SDS011;72604;40.088;18.346;2023-12-28T20:58:21;104.00;;;56.80;;
50872;SDS011;72604;40.088;18.346;2023-12-28T21:02:02;95.32;;;48.38;;
50872;SDS011;72604;40.088;18.346;2023-12-28T21:05:43;386.25;;;85.43;;
50872;SDS011;72604;40.088;18.346;2023-12-28T21:09:25;541.13;;;110.63;;
50872;SDS011;72604;40.088;18.346;2023-12-28T21:13:06;456.73;;;100.57;;